Terminal Aerodrome Forecast
Issued by NWS Charleston, WV

Home | Current Version | Previous Version | Text Only | Print | Product List | Glossary On
Versions: 1 2 3 4 5 6 7 8 9 10 11 12 13 14 15 16 17 18 19 20 21
000
FTUS41 KRLX 251747
TAFBKW
TAF
KBKW 251747Z 2518/2618 35004KT P6SM SCT030
     FM252000 06004KT P6SM SCT040
     FM260100 10003KT P6SM BKN025
     FM260300 12005KT P6SM BKN012
     FM261300 18008KT P6SM BKN025
     FM261500 22009KT P6SM BKN040=

USA.gov is the U.S. government's official web portal to all federal, state and local government web resources and services.